Time;durP1;ratioP1;P1;durP2;ratioP2;P2;SDS_P1;SDS_P2;PMS_P1;PMS_P2;Temp;Humidity;BMP_temperature;BMP_pressure;BME280_temperature;BME280_humidity;BME280_pressure;Samples;Min_cycle;Max_cycle;Signal;HPM_P1;HPM_P2
2021/09/17 00:00:11;;;;;;;19.35;13.30;;;18.80;99.90;;;;;;5051892;28;20056;-74
2021/09/17 00:02:38;;;;;;;21.25;14.23;;;18.80;99.90;;;;;;5052663;28;20048;-74
2021/09/17 00:05:05;;;;;;;18.85;12.55;;;18.80;99.90;;;;;;5033721;28;20068;-74
2021/09/17 00:07:31;;;;;;;23.05;14.85;;;18.80;99.90;;;;;;5052797;28;20087;-75
2021/09/17 00:09:56;;;;;;;21.42;14.98;;;18.80;99.90;;;;;;5051857;28;20025;-74
2021/09/17 00:12:22;;;;;;;22.33;14.77;;;18.90;99.90;;;;;;5052058;28;20033;-74
2021/09/17 00:14:48;;;;;;;174.88;26.52;;;18.90;99.90;;;;;;5050737;28;20021;-74
2021/09/17 00:17:14;;;;;;;488.98;52.92;;;18.90;99.90;;;;;;5050834;28;20032;-74
2021/09/17 00:19:40;;;;;;;29.88;12.88;;;18.60;99.90;;;;;;5051565;28;20025;-74
2021/09/17 00:22:05;;;;;;;14.50;9.27;;;18.60;99.90;;;;;;5051796;28;20032;-75
2021/09/17 00:24:32;;;;;;;14.35;7.63;;;18.40;99.90;;;;;;5051823;28;20053;-74
2021/09/17 00:26:59;;;;;;;11.10;6.55;;;18.30;99.90;;;;;;5051829;28;20025;-74
2021/09/17 00:29:25;;;;;;;11.95;6.93;;;18.30;99.90;;;;;;5051937;28;20048;-74
2021/09/17 00:31:51;;;;;;;10.70;7.22;;;18.30;99.90;;;;;;5051401;28;20479;-74
2021/09/17 00:34:17;;;;;;;11.15;7.28;;;18.20;99.90;;;;;;5051861;28;20024;-74
2021/09/17 00:36:43;;;;;;;11.48;6.90;;;18.40;99.90;;;;;;5051428;28;20394;-74
2021/09/17 00:39:12;;;;;;;12.13;6.70;;;18.40;99.90;;;;;;5051924;28;20031;-74
2021/09/17 00:41:40;;;;;;;8.40;6.20;;;18.40;99.90;;;;;;5050758;28;20028;-73
2021/09/17 00:44:05;;;;;;;6.20;4.20;;;18.40;99.90;;;;;;5034067;28;20029;-74
2021/09/17 00:46:31;;;;;;;6.05;4.00;;;18.20;99.90;;;;;;5049161;28;20043;-74
2021/09/17 00:48:57;;;;;;;5.53;3.65;;;18.20;99.90;;;;;;5051696;28;20108;-74
2021/09/17 00:51:23;;;;;;;8.15;4.07;;;18.20;99.90;;;;;;5048302;28;20119;-74
2021/09/17 00:53:49;;;;;;;6.25;3.53;;;18.30;99.90;;;;;;5050669;28;20031;-74
2021/09/17 00:56:15;;;;;;;4.90;2.95;;;18.30;99.90;;;;;;5051495;28;20475;-74
2021/09/17 00:58:41;;;;;;;7.20;3.80;;;18.30;99.90;;;;;;5051374;28;20036;-74
2021/09/17 01:01:06;;;;;;;9.25;4.13;;;18.30;99.90;;;;;;5051307;28;20025;-74
2021/09/17 01:03:32;;;;;;;8.05;4.03;;;18.20;99.90;;;;;;5050326;28;20025;-74
2021/09/17 01:06:01;;;;;;;9.27;5.03;;;18.20;99.90;;;;;;5050380;28;20049;-74
2021/09/17 01:08:31;;;;;;;6.03;4.03;;;18.30;99.90;;;;;;5051126;28;20036;-74
2021/09/17 01:10:58;;;;;;;5.82;3.70;;;18.20;99.90;;;;;;5051481;28;20049;-74
2021/09/17 01:13:26;;;;;;;6.30;3.63;;;18.20;99.90;;;;;;5051036;28;20063;-75
2021/09/17 01:15:52;;;;;;;5.43;3.20;;;18.20;99.90;;;;;;5051157;28;20021;-74
2021/09/17 01:18:17;;;;;;;7.72;3.55;;;18.20;99.90;;;;;;5051089;28;20032;-73
2021/09/17 01:20:43;;;;;;;7.35;3.67;;;18.20;99.90;;;;;;5050831;28;20088;-74
2021/09/17 01:23:09;;;;;;;6.72;3.17;;;18.20;99.90;;;;;;5050767;28;20035;-74
2021/09/17 01:25:34;;;;;;;5.68;3.13;;;18.10;99.90;;;;;;5050730;28;20052;-74
2021/09/17 01:28:00;;;;;;;6.55;2.88;;;18.00;99.90;;;;;;5051123;28;20613;-74
2021/09/17 01:30:26;;;;;;;7.75;2.83;;;18.00;99.90;;;;;;5050839;28;20017;-73
2021/09/17 01:32:52;;;;;;;5.35;2.40;;;18.00;99.90;;;;;;5051176;28;20419;-73
2021/09/17 01:35:22;;;;;;;8.73;3.17;;;18.00;99.90;;;;;;5050273;28;20025;-73
2021/09/17 01:37:48;;;;;;;6.95;3.30;;;18.10;99.90;;;;;;5050483;28;20382;-74
2021/09/17 01:40:14;;;;;;;6.55;4.00;;;18.10;99.90;;;;;;5050927;28;20025;-73
2021/09/17 01:42:41;;;;;;;6.65;4.03;;;18.00;99.90;;;;;;5050682;28;20120;-73
2021/09/17 01:45:09;;;;;;;4.85;3.00;;;18.00;99.90;;;;;;5050644;28;20044;-74
2021/09/17 01:47:34;;;;;;;6.13;3.60;;;18.00;99.90;;;;;;5045163;28;20116;-74
2021/09/17 01:50:00;;;;;;;8.68;3.90;;;18.00;99.90;;;;;;5048198;28;20104;-73
2021/09/17 01:52:26;;;;;;;7.55;3.92;;;18.00;99.90;;;;;;5048712;28;20471;-73
2021/09/17 01:54:52;;;;;;;8.05;3.95;;;18.10;99.90;;;;;;5030846;28;20075;-74
2021/09/17 01:57:17;;;;;;;5.95;3.20;;;18.00;99.90;;;;;;5048634;28;20120;-73
2021/09/17 01:59:43;;;;;;;5.35;3.78;;;17.90;99.90;;;;;;5048663;28;20029;-74
2021/09/17 02:02:09;;;;;;;5.18;3.15;;;17.90;99.90;;;;;;5049020;28;20025;-73
2021/09/17 02:04:35;;;;;;;8.18;3.78;;;18.00;99.90;;;;;;5052701;28;20021;-74
2021/09/17 02:07:01;;;;;;;5.75;3.55;;;18.00;99.90;;;;;;5042220;28;20479;-73
2021/09/17 02:09:26;;;;;;;4.28;2.17;;;17.90;99.90;;;;;;5054212;28;20028;-74
2021/09/17 02:11:52;;;;;;;6.57;2.72;;;17.90;99.90;;;;;;5055035;28;20028;-74
2021/09/17 02:14:18;;;;;;;3.72;1.98;;;17.90;99.90;;;;;;5054569;28;20017;-74
2021/09/17 02:16:44;;;;;;;4.57;2.13;;;17.90;99.90;;;;;;5054411;28;20107;-73
2021/09/17 02:19:09;;;;;;;3.60;2.00;;;17.80;99.90;;;;;;5054387;28;20448;-73
2021/09/17 02:21:39;;;;;;;5.07;2.10;;;17.70;99.90;;;;;;5053888;28;20483;-73
2021/09/17 02:24:05;;;;;;;3.72;2.00;;;17.60;99.90;;;;;;5054679;28;20017;-73
2021/09/17 02:26:31;;;;;;;6.43;2.70;;;17.60;99.90;;;;;;5053913;28;20041;-73
2021/09/17 02:28:57;;;;;;;2.58;1.40;;;17.60;99.90;;;;;;5053967;28;20107;-74
2021/09/17 02:31:22;;;;;;;4.03;2.25;;;17.60;99.90;;;;;;5054480;28;20100;-73
2021/09/17 02:33:48;;;;;;;3.88;2.03;;;17.60;99.90;;;;;;5054463;28;20047;-73
2021/09/17 02:36:14;;;;;;;2.78;1.13;;;17.60;99.90;;;;;;5053827;28;20138;-73
2021/09/17 02:38:40;;;;;;;3.78;1.58;;;17.60;99.90;;;;;;5053458;28;20033;-73
2021/09/17 02:41:05;;;;;;;3.13;1.40;;;17.70;99.90;;;;;;5054211;28;20064;-74
2021/09/17 02:43:32;;;;;;;5.82;1.67;;;17.70;99.90;;;;;;5054174;28;20433;-74
2021/09/17 02:45:59;;;;;;;2.70;1.35;;;17.70;99.90;;;;;;5053827;28;20033;-73
2021/09/17 02:48:26;;;;;;;4.15;1.83;;;17.70;99.90;;;;;;5032413;28;20018;-73
2021/09/17 02:50:52;;;;;;;2.95;1.40;;;17.60;99.90;;;;;;5048644;28;20122;-73
2021/09/17 02:53:17;;;;;;;3.30;1.60;;;17.60;99.90;;;;;;5052133;28;20487;-73
2021/09/17 02:55:43;;;;;;;2.95;1.48;;;17.60;99.90;;;;;;5051505;28;20021;-73
2021/09/17 02:58:09;;;;;;;3.20;1.30;;;17.60;99.90;;;;;;5051891;28;20047;-74
2021/09/17 03:00:37;;;;;;;2.58;1.38;;;17.60;99.90;;;;;;5051421;28;20029;-73
2021/09/17 03:03:02;;;;;;;2.88;1.40;;;17.60;99.90;;;;;;5036924;28;20312;-74
2021/09/17 03:05:28;;;;;;;3.05;1.30;;;17.60;99.90;;;;;;5033921;28;20476;-73
2021/09/17 03:07:54;;;;;;;3.45;1.40;;;17.70;99.90;;;;;;5044472;28;20428;-74
2021/09/17 03:10:20;;;;;;;3.80;1.40;;;17.60;99.90;;;;;;5044345;28;20024;-74
2021/09/17 03:12:45;;;;;;;3.38;1.60;;;17.60;99.90;;;;;;5044997;28;20031;-74
2021/09/17 03:15:11;;;;;;;3.55;1.30;;;17.60;99.90;;;;;;5043931;28;20044;-74
2021/09/17 03:17:37;;;;;;;4.25;1.50;;;17.60;99.90;;;;;;5044556;28;20029;-74
2021/09/17 03:20:04;;;;;;;3.45;1.45;;;17.60;99.90;;;;;;5044544;28;20372;-74
2021/09/17 03:22:29;;;;;;;4.50;1.35;;;17.60;99.90;;;;;;5032339;28;20025;-74
2021/09/17 03:24:55;;;;;;;3.25;1.40;;;17.50;99.90;;;;;;5047766;28;21065;-74
2021/09/17 03:27:21;;;;;;;3.22;1.30;;;17.50;99.90;;;;;;5047413;28;20052;-74
2021/09/17 03:29:47;;;;;;;3.65;1.13;;;17.50;99.90;;;;;;5047765;28;20029;-73
2021/09/17 03:32:12;;;;;;;2.78;1.30;;;17.40;99.90;;;;;;5029340;28;20025;-73
2021/09/17 03:34:38;;;;;;;4.28;1.50;;;17.50;99.90;;;;;;5047902;28;20446;-74
2021/09/17 03:37:04;;;;;;;2.67;1.25;;;17.40;99.90;;;;;;5047489;28;20117;-74
2021/09/17 03:39:30;;;;;;;4.35;1.20;;;17.50;99.90;;;;;;5029661;28;20108;-74
2021/09/17 03:41:56;;;;;;;5.75;4.10;;;17.40;99.90;;;;;;5047152;28;20036;-74
2021/09/17 03:44:22;;;;;;;4.43;1.40;;;17.50;99.90;;;;;;5047973;28;20025;-74
2021/09/17 03:46:48;;;;;;;2.25;1.33;;;17.50;99.90;;;;;;5047077;28;20485;-74
2021/09/17 03:49:14;;;;;;;2.88;1.52;;;17.50;99.90;;;;;;5045907;28;20029;-74
2021/09/17 03:51:40;;;;;;;3.35;1.77;;;17.50;99.90;;;;;;5046722;28;20041;-74
2021/09/17 03:54:06;;;;;;;5.15;1.95;;;17.50;99.90;;;;;;5046180;28;20028;-74
2021/09/17 03:56:32;;;;;;;4.97;1.58;;;17.50;99.90;;;;;;5045303;28;20075;-74
2021/09/17 03:58:58;;;;;;;3.67;1.85;;;17.40;99.90;;;;;;5045426;28;20523;-74
2021/09/17 04:01:23;;;;;;;3.38;1.60;;;17.40;99.90;;;;;;5046150;28;20057;-74
2021/09/17 04:03:49;;;;;;;3.08;1.60;;;17.40;99.90;;;;;;5045192;28;20677;-74
2021/09/17 04:06:15;;;;;;;4.68;1.42;;;17.40;99.90;;;;;;5002531;28;1247133;-74
2021/09/17 04:08:40;;;;;;;3.67;1.25;;;17.30;99.90;;;;;;5046929;28;20366;-74
2021/09/17 04:11:06;;;;;;;3.28;1.23;;;17.30;99.90;;;;;;5048170;28;20252;-74
2021/09/17 04:13:32;;;;;;;2.33;1.08;;;17.40;99.90;;;;;;5047677;28;20104;-74
2021/09/17 04:15:57;;;;;;;3.25;0.88;;;17.20;99.90;;;;;;5048291;28;20033;-74
2021/09/17 04:18:23;;;;;;;1.92;1.00;;;17.10;99.90;;;;;;5047507;28;20090;-74
2021/09/17 04:20:49;;;;;;;3.47;1.10;;;17.10;99.90;;;;;;5047694;28;20561;-73
2021/09/17 04:23:15;;;;;;;1.60;0.75;;;17.20;99.90;;;;;;5047671;28;20033;-74
2021/09/17 04:25:41;;;;;;;3.63;0.82;;;17.20;99.90;;;;;;5046667;28;20056;-74
2021/09/17 04:28:07;;;;;;;2.10;1.00;;;17.10;99.90;;;;;;5047375;28;20017;-75
2021/09/17 04:30:34;;;;;;;4.68;1.70;;;17.10;99.90;;;;;;5047681;28;20078;-74
2021/09/17 04:33:00;;;;;;;2.33;0.88;;;17.10;99.90;;;;;;5047629;28;20492;-74
2021/09/17 04:35:26;;;;;;;2.70;0.90;;;17.10;99.90;;;;;;5046545;28;20048;-74
2021/09/17 04:37:56;;;;;;;3.63;0.98;;;17.00;99.90;;;;;;5044545;28;20472;-74
2021/09/17 04:40:23;;;;;;;1.67;0.70;;;17.00;99.90;;;;;;5045044;28;20089;-74
2021/09/17 04:42:49;;;;;;;3.28;0.85;;;16.90;99.90;;;;;;5044726;28;20029;-74
2021/09/17 04:45:14;;;;;;;2.15;1.35;;;16.90;99.90;;;;;;5044039;28;20037;-74
2021/09/17 04:47:40;;;;;;;2.47;1.13;;;16.80;99.90;;;;;;5044733;28;20111;-74
2021/09/17 04:50:08;;;;;;;2.65;1.10;;;16.80;99.90;;;;;;5018185;28;20499;-74
2021/09/17 04:52:34;;;;;;;2.35;0.98;;;16.80;99.90;;;;;;5029202;28;20040;-74
2021/09/17 04:55:00;;;;;;;2.15;0.95;;;16.80;99.90;;;;;;5045520;28;20609;-74
2021/09/17 04:57:29;;;;;;;1.95;0.93;;;16.80;99.90;;;;;;5046286;28;20341;-74
2021/09/17 04:59:54;;;;;;;5.47;0.80;;;16.80;99.90;;;;;;5047403;28;20124;-74
2021/09/17 05:02:20;;;;;;;3.92;0.77;;;16.90;99.90;;;;;;5046888;28;20099;-74
2021/09/17 05:04:46;;;;;;;2.88;1.10;;;17.00;99.90;;;;;;5044818;28;20814;-74
2021/09/17 05:07:12;;;;;;;2.65;1.08;;;16.90;99.90;;;;;;5043211;28;20049;-74
2021/09/17 05:09:39;;;;;;;2.65;0.90;;;16.80;99.90;;;;;;5046007;28;20035;-74
2021/09/17 05:12:06;;;;;;;2.17;1.10;;;16.80;99.90;;;;;;5046832;28;20025;-74
2021/09/17 05:14:32;;;;;;;3.67;0.90;;;16.80;99.90;;;;;;5047054;28;20033;-74
2021/09/17 05:16:57;;;;;;;3.83;1.38;;;16.80;99.90;;;;;;5046728;28;20867;-74
2021/09/17 05:19:25;;;;;;;2.97;1.20;;;16.90;99.90;;;;;;5046733;28;20028;-74
2021/09/17 05:21:55;;;;;;;2.63;1.35;;;16.90;99.90;;;;;;5028758;28;20453;-74
2021/09/17 05:24:22;;;;;;;4.45;1.00;;;16.90;99.90;;;;;;5046525;28;20021;-73
2021/09/17 05:26:48;;;;;;;4.60;1.15;;;16.90;99.90;;;;;;5046725;28;20548;-73
2021/09/17 05:29:14;;;;;;;2.60;1.35;;;17.00;99.90;;;;;;5050747;28;20040;-74
2021/09/17 05:31:40;;;;;;;3.30;1.30;;;16.90;99.90;;;;;;5046934;28;20025;-74
2021/09/17 05:34:06;;;;;;;4.18;2.13;;;17.00;99.90;;;;;;5033572;28;20040;-74
2021/09/17 05:36:31;;;;;;;3.55;2.15;;;17.00;99.90;;;;;;5046919;28;20479;-74
2021/09/17 05:38:57;;;;;;;6.38;2.42;;;17.10;99.90;;;;;;5047322;28;20037;-73
2021/09/17 05:41:23;;;;;;;4.80;2.75;;;17.20;99.90;;;;;;5045135;28;20037;-74
2021/09/17 05:43:50;;;;;;;6.53;2.85;;;17.30;99.90;;;;;;5043319;28;20028;-75
2021/09/17 05:46:16;;;;;;;7.72;3.17;;;17.30;99.90;;;;;;5042162;28;20596;-74
2021/09/17 05:48:41;;;;;;;6.20;3.38;;;17.30;99.90;;;;;;5041935;28;20028;-74
2021/09/17 05:51:07;;;;;;;6.60;3.22;;;17.40;99.90;;;;;;5042785;28;20452;-74
2021/09/17 05:53:33;;;;;;;6.35;3.60;;;17.40;99.90;;;;;;5043847;28;20021;-74
2021/09/17 05:55:58;;;;;;;5.10;3.65;;;17.40;99.90;;;;;;5044182;28;20029;-73
2021/09/17 05:58:30;;;;;;;7.18;3.72;;;17.30;99.90;;;;;;5043157;28;20028;-74
2021/09/17 06:00:56;;;;;;;5.70;3.65;;;17.40;99.90;;;;;;5043276;28;20021;-73
2021/09/17 06:03:21;;;;;;;6.53;4.53;;;17.30;99.90;;;;;;5043668;28;20047;-73
2021/09/17 06:05:47;;;;;;;5.85;3.80;;;17.40;99.90;;;;;;5024984;28;20061;-73
2021/09/17 06:08:13;;;;;;;5.47;3.85;;;17.60;99.90;;;;;;5043278;28;20121;-73
2021/09/17 06:10:39;;;;;;;6.13;3.90;;;17.80;99.90;;;;;;5043058;28;20508;-73
2021/09/17 06:13:04;;;;;;;6.07;3.95;;;17.70;99.90;;;;;;5043782;28;20025;-73
2021/09/17 06:15:30;;;;;;;8.75;4.28;;;17.80;99.90;;;;;;5042910;28;20029;-73
2021/09/17 06:17:56;;;;;;;5.68;3.78;;;17.70;99.90;;;;;;5023612;28;20071;-73
2021/09/17 06:20:21;;;;;;;4.93;3.60;;;17.70;99.90;;;;;;5005773;28;20107;-73
2021/09/17 06:22:53;;;;;;;7.95;3.95;;;17.70;99.90;;;;;;5024185;28;20030;-73
2021/09/17 06:25:20;;;;;;;6.32;3.90;;;17.80;99.90;;;;;;5022678;28;20037;-73
2021/09/17 06:27:46;;;;;;;4.72;3.05;;;17.90;99.90;;;;;;5037460;28;20025;-73
2021/09/17 06:30:13;;;;;;;8.13;3.80;;;17.90;99.90;;;;;;5043274;28;20025;-74
2021/09/17 06:32:38;;;;;;;8.00;4.28;;;17.90;99.90;;;;;;5043322;28;20029;-74
2021/09/17 06:35:05;;;;;;;5.93;3.90;;;17.90;99.90;;;;;;5036362;28;20013;-74
2021/09/17 06:37:31;;;;;;;6.63;4.10;;;18.00;99.90;;;;;;5041407;28;20064;-73
2021/09/17 06:39:56;;;;;;;7.93;4.80;;;18.10;99.90;;;;;;5040959;28;20053;-73
2021/09/17 06:42:22;;;;;;;6.10;3.95;;;18.10;99.90;;;;;;5041508;28;20033;-73
2021/09/17 06:44:48;;;;;;;7.70;3.65;;;18.20;99.90;;;;;;5041505;28;20032;-74
2021/09/17 06:47:14;;;;;;;6.25;4.38;;;18.30;99.90;;;;;;5040944;28;20037;-74
2021/09/17 06:49:39;;;;;;;7.22;4.93;;;18.30;99.90;;;;;;5043611;28;20365;-74
2021/09/17 06:52:06;;;;;;;8.18;4.47;;;18.30;99.90;;;;;;5045583;28;20040;-73
2021/09/17 06:54:32;;;;;;;7.68;5.10;;;18.20;99.90;;;;;;5046924;28;20745;-74
2021/09/17 06:56:57;;;;;;;6.90;5.05;;;18.20;99.90;;;;;;5046800;28;20028;-74
2021/09/17 06:59:23;;;;;;;8.40;4.32;;;18.30;99.90;;;;;;5046670;28;20033;-74
2021/09/17 07:01:49;;;;;;;8.63;5.60;;;18.30;99.90;;;;;;5046815;28;20056;-74
2021/09/17 07:04:15;;;;;;;9.40;6.03;;;18.40;99.90;;;;;;5047076;28;20029;-73
2021/09/17 07:06:41;;;;;;;9.45;5.78;;;18.40;99.90;;;;;;5046946;28;20433;-73
2021/09/17 07:09:07;;;;;;;10.15;6.25;;;18.50;99.90;;;;;;5029114;28;20060;-73
2021/09/17 07:11:33;;;;;;;8.30;5.70;;;18.50;99.90;;;;;;5046893;28;20025;-74
2021/09/17 07:13:59;;;;;;;7.53;5.95;;;18.50;99.90;;;;;;5046369;28;20013;-73
2021/09/17 07:16:25;;;;;;;9.20;5.80;;;18.40;99.90;;;;;;5046721;28;20052;-73
2021/09/17 07:18:51;;;;;;;7.85;5.93;;;18.50;99.90;;;;;;5047042;28;20418;-74
2021/09/17 07:21:17;;;;;;;7.55;5.25;;;18.60;99.90;;;;;;5046686;28;20021;-74
2021/09/17 07:23:43;;;;;;;8.73;5.28;;;18.60;99.90;;;;;;5047053;28;20100;-74
2021/09/17 07:26:09;;;;;;;9.90;4.82;;;18.70;99.90;;;;;;5046756;28;20049;-73
2021/09/17 07:28:35;;;;;;;7.20;4.93;;;18.80;99.90;;;;;;5046349;28;20029;-74
2021/09/17 07:31:01;;;;;;;9.18;5.28;;;18.90;99.90;;;;;;5046817;28;20083;-74
2021/09/17 07:33:27;;;;;;;8.63;5.38;;;19.00;99.90;;;;;;5046869;28;20032;-73
2021/09/17 07:35:54;;;;;;;7.53;4.60;;;18.90;99.90;;;;;;5031134;28;20032;-74
2021/09/17 07:38:19;;;;;;;6.95;5.00;;;18.90;99.90;;;;;;5044682;28;20029;-73
2021/09/17 07:40:45;;;;;;;8.70;4.90;;;18.80;99.90;;;;;;5044928;28;20037;-76
2021/09/17 07:43:11;;;;;;;12.45;4.93;;;19.00;99.90;;;;;;5044889;28;20029;-75
2021/09/17 07:45:37;;;;;;;10.07;4.30;;;19.00;99.90;;;;;;5043962;28;20045;-75
2021/09/17 07:48:03;;;;;;;8.60;3.92;;;19.10;99.90;;;;;;5044591;28;20690;-74
2021/09/17 07:50:30;;;;;;;8.27;4.60;;;18.90;99.90;;;;;;5044789;28;20104;-74
2021/09/17 07:52:56;;;;;;;6.53;4.18;;;19.00;99.90;;;;;;5045076;28;20506;-74
2021/09/17 07:55:22;;;;;;;8.05;3.53;;;19.10;99.90;;;;;;5045936;28;20635;-74
2021/09/17 07:57:48;;;;;;;6.40;2.80;;;19.00;99.90;;;;;;5046247;28;20104;-74
2021/09/17 08:00:15;;;;;;;5.95;3.33;;;19.10;99.90;;;;;;5043866;28;20514;-75
2021/09/17 08:02:42;;;;;;;5.57;3.35;;;19.10;99.90;;;;;;5045777;28;20041;-75
2021/09/17 08:05:09;;;;;;;7.82;5.50;;;19.20;99.90;;;;;;5045488;28;20492;-74
2021/09/17 08:07:35;;;;;;;10.63;6.85;;;19.20;99.90;;;;;;5045883;28;20025;-75
2021/09/17 08:10:00;;;;;;;10.70;9.57;;;19.20;99.90;;;;;;5045909;28;20029;-74
2021/09/17 08:12:26;;;;;;;12.32;8.55;;;19.10;99.90;;;;;;5046104;28;20063;-75
2021/09/17 08:14:52;;;;;;;13.45;9.98;;;19.10;99.90;;;;;;5045808;28;20094;-75
2021/09/17 08:17:18;;;;;;;9.13;8.10;;;19.10;99.90;;;;;;5045595;28;20100;-75
2021/09/17 08:19:43;;;;;;;7.35;5.80;;;19.10;99.90;;;;;;5046027;28;20028;-75
2021/09/17 08:22:09;;;;;;;5.20;3.28;;;19.10;99.90;;;;;;5045423;28;20454;-74
2021/09/17 08:24:36;;;;;;;3.83;2.60;;;19.10;99.90;;;;;;5027838;28;20086;-75
2021/09/17 08:27:01;;;;;;;5.50;2.67;;;19.20;99.90;;;;;;5045749;28;20071;-75
2021/09/17 08:29:28;;;;;;;4.03;2.78;;;19.30;99.90;;;;;;5045791;28;20056;-75
2021/09/17 08:31:56;;;;;;;6.13;2.65;;;19.40;99.90;;;;;;5045519;28;20021;-74
2021/09/17 08:34:23;;;;;;;6.80;2.53;;;19.20;99.90;;;;;;5045328;28;20032;-75
2021/09/17 08:36:49;;;;;;;10.55;3.25;;;19.30;99.90;;;;;;5025203;28;20040;-74
2021/09/17 08:39:15;;;;;;;6.75;2.42;;;19.50;99.90;;;;;;5043949;28;20029;-75
2021/09/17 08:41:44;;;;;;;4.22;2.30;;;19.50;99.90;;;;;;5043398;28;20098;-74
2021/09/17 08:44:10;;;;;;;3.03;1.85;;;19.60;99.90;;;;;;5043623;28;20476;-75
2021/09/17 08:46:40;;;;;;;4.07;2.30;;;19.70;99.90;;;;;;5043350;28;20025;-74
2021/09/17 08:49:07;;;;;;;4.68;2.83;;;19.70;99.90;;;;;;5043192;28;20025;-75
2021/09/17 08:51:33;;;;;;;5.05;2.63;;;19.80;99.90;;;;;;5043253;28;20487;-75
2021/09/17 08:54:01;;;;;;;4.70;2.10;;;19.90;99.90;;;;;;5044428;28;20037;-75
2021/09/17 08:56:27;;;;;;;5.00;2.20;;;19.90;99.90;;;;;;5044856;28;20031;-75
2021/09/17 08:58:53;;;;;;;4.60;2.72;;;19.90;99.90;;;;;;5044413;28;20074;-75
2021/09/17 09:01:31;;;;;;;5.93;2.30;;;20.00;99.90;;;;;;5044322;28;20029;-75
2021/09/17 09:04:00;;;;;;;4.40;2.38;;;20.00;99.90;;;;;;5044988;28;20029;-75
2021/09/17 09:06:27;;;;;;;5.50;2.20;;;20.00;99.90;;;;;;5043410;28;20057;-75
2021/09/17 09:08:55;;;;;;;5.05;2.78;;;20.80;99.90;;;;;;5044139;28;20029;-74
2021/09/17 09:11:25;;;;;;;3.75;2.60;;;21.20;99.90;;;;;;5044089;28;20059;-74
2021/09/17 09:14:05;;;;;;;6.13;2.58;;;21.00;99.90;;;;;;5044042;28;20025;-75
2021/09/17 09:16:31;;;;;;;4.50;2.60;;;21.30;99.90;;;;;;5043581;28;20079;-75
2021/09/17 09:18:57;;;;;;;5.45;2.47;;;22.20;99.90;;;;;;5043873;28;20698;-75
2021/09/17 09:21:31;;;;;;;7.32;3.15;;;23.10;99.90;;;;;;5044384;28;20112;-75
2021/09/17 09:24:16;;;;;;;5.30;3.35;;;25.20;99.90;;;;;;5045907;28;20025;-75
2021/09/17 09:26:41;;;;;;;;;;;26.20;98.80;;;;;;5047165;28;20055;-75
2021/09/17 09:29:26;;;;;;;6.07;3.35;;;27.50;98.20;;;;;;5028357;28;20434;-75
2021/09/17 09:31:51;;;;;;;4.82;3.05;;;27.90;96.20;;;;;;5046926;28;20052;-75
2021/09/17 09:34:17;;;;;;;7.35;3.35;;;27.30;96.40;;;;;;5047144;28;20446;-75
2021/09/17 09:36:43;;;;;;;6.90;3.60;;;27.30;96.90;;;;;;5033354;28;20067;-75
2021/09/17 09:39:09;;;;;;;8.50;3.35;;;26.30;97.00;;;;;;5026385;28;20038;-75
2021/09/17 09:41:36;;;;;;;8.55;2.58;;;24.80;98.10;;;;;;5044504;28;20430;-75
2021/09/17 09:44:04;;;;;;;5.10;2.63;;;23.50;99.20;;;;;;5044908;28;20127;-75
2021/09/17 09:46:37;;;;;;;5.20;2.70;;;22.30;99.90;;;;;;5045157;28;20127;-75
2021/09/17 09:49:29;;;;;;;5.82;2.70;;;21.70;99.90;;;;;;5045294;28;20025;-75
2021/09/17 09:52:06;;;;;;;5.20;2.38;;;21.50;99.90;;;;;;5043921;28;20063;-74
2021/09/17 09:54:33;;;;;;;5.05;2.17;;;21.20;99.90;;;;;;5044007;28;20033;-75
2021/09/17 09:57:00;;;;;;;4.35;1.80;;;21.30;99.90;;;;;;5045672;28;20033;-75
2021/09/17 09:59:31;;;;;;;3.80;1.90;;;21.50;99.90;;;;;;5046532;28;20040;-75
2021/09/17 10:02:00;;;;;;;5.28;2.42;;;21.60;99.90;;;;;;5046161;28;20032;-75
2021/09/17 10:04:28;;;;;;;6.43;2.33;;;21.70;99.90;;;;;;5046468;28;20043;-75
2021/09/17 10:07:07;;;;;;;4.43;1.67;;;21.80;99.90;;;;;;5046420;28;20945;-75
2021/09/17 10:09:38;;;;;;;3.40;2.00;;;21.80;99.90;;;;;;5046275;28;20474;-75
2021/09/17 10:12:09;;;;;;;4.57;1.85;;;22.00;99.90;;;;;;5046228;28;20033;-75
2021/09/17 10:14:36;;;;;;;5.70;2.33;;;22.10;99.90;;;;;;5046271;28;20029;-75
2021/09/17 10:17:07;;;;;;;3.47;2.15;;;22.20;99.90;;;;;;5046308;28;20021;-75
2021/09/17 10:19:35;;;;;;;6.05;2.72;;;22.10;99.90;;;;;;5046250;28;20033;-75
2021/09/17 10:22:02;;;;;;;7.75;2.28;;;21.70;99.90;;;;;;5046013;28;20108;-75
2021/09/17 10:24:34;;;;;;;5.80;2.40;;;21.50;99.90;;;;;;5048328;28;20052;-75
2021/09/17 10:27:22;;;;;;;5.45;2.28;;;21.50;99.90;;;;;;5050433;28;20071;-75
2021/09/17 10:29:54;;;;;;;4.40;2.53;;;21.60;99.90;;;;;;5049929;28;20109;-75
2021/09/17 10:32:26;;;;;;;3.67;1.75;;;21.50;99.90;;;;;;5049499;28;20028;-75
2021/09/17 10:35:04;;;;;;;4.70;1.50;;;21.60;99.90;;;;;;5049588;28;20037;-75
2021/09/17 10:37:55;;;;;;;3.67;2.08;;;21.80;99.90;;;;;;5047152;28;20021;-75
2021/09/17 10:40:40;;;;;;;5.25;1.88;;;22.10;99.90;;;;;;5049234;28;20103;-75
2021/09/17 10:43:08;;;;;;;9.48;1.75;;;22.40;99.90;;;;;;5048070;28;20087;-75
2021/09/17 10:45:48;;;;;;;4.43;2.00;;;22.40;99.90;;;;;;5047659;28;20055;-75
2021/09/17 10:48:20;;;;;;;3.95;1.63;;;22.70;99.90;;;;;;5048178;28;20429;-75
2021/09/17 10:50:48;;;;;;;4.88;2.22;;;22.70;99.90;;;;;;5030057;28;20055;-76
2021/09/17 10:53:40;;;;;;;4.32;1.60;;;22.70;99.90;;;;;;5047699;28;20116;-75
2021/09/17 10:56:14;;;;;;;3.83;2.20;;;22.90;99.90;;;;;;5048732;28;20023;-75
2021/09/17 10:58:45;;;;;;;4.43;2.05;;;23.20;99.90;;;;;;5049508;28;20052;-75
2021/09/17 11:01:12;;;;;;;5.28;2.08;;;23.20;99.90;;;;;;5049358;28;20621;-75
2021/09/17 11:03:48;;;;;;;31.60;2.95;;;23.30;99.30;;;;;;5049288;28;20479;-75
2021/09/17 11:06:26;;;;;;;4.20;1.63;;;23.30;98.40;;;;;;5049424;28;20207;-75
2021/09/17 11:08:54;;;;;;;63.17;3.28;;;23.20;98.80;;;;;;5049387;28;20050;-75
2021/09/17 11:11:23;;;;;;;5.57;2.03;;;23.20;98.70;;;;;;5049328;28;20513;-75
2021/09/17 11:13:50;;;;;;;10.50;1.50;;;23.30;99.80;;;;;;5048963;28;20411;-75
2021/09/17 11:16:18;;;;;;;5.50;1.58;;;23.50;99.90;;;;;;5048846;28;20021;-75
2021/09/17 11:19:01;;;;;;;2.65;1.23;;;23.40;98.70;;;;;;5049117;28;20029;-76
2021/09/17 11:21:37;;;;;;;24.23;2.27;;;23.60;99.20;;;;;;5048991;28;20032;-75
2021/09/17 11:24:05;;;;;;;2.72;1.40;;;23.60;98.10;;;;;;5048979;28;20047;-75
2021/09/17 11:26:34;;;;;;;1.73;1.00;;;23.70;98.80;;;;;;5048941;28;20033;-75
2021/09/17 11:29:11;;;;;;;3.22;1.30;;;23.80;98.60;;;;;;5049063;28;20626;-75
2021/09/17 11:31:49;;;;;;;2.72;1.60;;;23.70;98.40;;;;;;5049041;28;20033;-75
2021/09/17 11:34:17;;;;;;;2.70;1.35;;;23.80;98.60;;;;;;5048152;28;20017;-75
2021/09/17 11:36:58;;;;;;;6.88;1.63;;;24.00;98.10;;;;;;5048610;28;20107;-75
2021/09/17 11:39:26;;;;;;;7.25;1.95;;;24.00;98.40;;;;;;5046621;28;20053;-76
2021/09/17 11:41:53;;;;;;;4.82;1.38;;;24.20;97.80;;;;;;5047155;28;20029;-75
2021/09/17 11:44:39;;;;;;;4.68;1.50;;;24.10;97.70;;;;;;5047014;28;20024;-75
2021/09/17 11:47:12;;;;;;;2.90;1.45;;;24.10;97.40;;;;;;5046286;28;20139;-75
2021/09/17 11:49:41;;;;;;;3.20;1.25;;;24.00;96.90;;;;;;5047053;28;20029;-75
2021/09/17 11:52:18;;;;;;;4.05;1.85;;;24.10;97.90;;;;;;5044099;28;20017;-76
2021/09/17 11:54:58;;;;;;;1.92;1.70;;;24.30;97.70;;;;;;5043840;28;20694;-75
2021/09/17 11:57:29;;;;;;;3.40;1.00;;;24.60;97.20;;;;;;5046965;28;20108;-76
2021/09/17 11:59:55;;;;;;;1.55;0.80;;;24.60;96.50;;;;;;5048637;28;20025;-75
2021/09/17 12:02:27;;;;;;;14.13;1.95;;;24.60;96.80;;;;;;5048409;28;20032;-76
2021/09/17 12:04:58;;;;;;;14.00;1.13;;;24.90;96.90;;;;;;5047885;28;20037;-76
2021/09/17 12:07:29;;;;;;;3.88;1.08;;;24.80;96.60;;;;;;5048121;28;20089;-75
2021/09/17 12:09:55;;;;;;;2.47;0.80;;;24.90;96.20;;;;;;5047362;28;20017;-76
2021/09/17 12:12:35;;;;;;;11.57;2.92;;;25.00;96.00;;;;;;5045474;28;20024;-75
2021/09/17 12:15:01;;;;;;;1.83;0.70;;;25.10;96.80;;;;;;5045166;28;20032;-76
2021/09/17 12:17:27;;;;;;;1.63;0.85;;;25.00;96.30;;;;;;5047611;28;20096;-76
2021/09/17 12:20:03;;;;;;;0.70;0.45;;;25.20;96.20;;;;;;5047773;28;20107;-75
2021/09/17 12:22:38;;;;;;;0.75;0.50;;;25.20;95.10;;;;;;5028128;28;20140;-76
2021/09/17 12:25:11;;;;;;;2.13;0.93;;;25.40;96.30;;;;;;5028441;28;20022;-76
2021/09/17 12:27:40;;;;;;;2.08;1.08;;;25.30;94.30;;;;;;5028193;28;20029;-76
2021/09/17 12:30:14;;;;;;;2.15;1.02;;;25.30;94.90;;;;;;5027156;28;20022;-76
2021/09/17 12:32:41;;;;;;;3.28;1.40;;;25.30;94.80;;;;;;5044157;28;20718;-76
2021/09/17 12:35:15;;;;;;;3.47;1.38;;;25.20;95.30;;;;;;5044938;28;20025;-76
2021/09/17 12:37:52;;;;;;;;;;;25.30;95.50;;;;;;5045614;28;20146;-76
2021/09/17 12:40:25;;;;;;;2.75;1.33;;;25.40;95.80;;;;;;5027096;28;19909;-76
2021/09/17 12:43:07;;;;;;;2.25;1.27;;;25.60;96.10;;;;;;5028255;28;20048;-75
2021/09/17 12:45:34;;;;;;;2.72;1.35;;;25.50;96.00;;;;;;5045647;28;20079;-76
2021/09/17 12:48:03;;;;;;;3.17;1.58;;;25.50;95.80;;;;;;5045219;28;20025;-76